sensor_id;sensor_type;location;lat;lon;timestamp;P1;durP1;ratioP1;P2;durP2;ratioP2
14060;SDS011;7105;43.616;1.434;2022-12-07T00:00:41;33.57;;;23.40;;
14060;SDS011;7105;43.616;1.434;2022-12-07T00:03:07;29.93;;;22.03;;
14060;SDS011;7105;43.616;1.434;2022-12-07T00:05:32;26.90;;;21.20;;
14060;SDS011;7105;43.616;1.434;2022-12-07T00:07:58;26.10;;;19.70;;
14060;SDS011;7105;43.616;1.434;2022-12-07T00:10:24;24.03;;;17.87;;
14060;SDS011;7105;43.616;1.434;2022-12-07T00:12:49;25.83;;;18.80;;
14060;SDS011;7105;43.616;1.434;2022-12-07T00:15:15;28.77;;;19.03;;
14060;SDS011;7105;43.616;1.434;2022-12-07T00:17:41;23.13;;;16.77;;
14060;SDS011;7105;43.616;1.434;2022-12-07T00:20:07;27.80;;;19.13;;
14060;SDS011;7105;43.616;1.434;2022-12-07T00:22:32;26.20;;;19.63;;
14060;SDS011;7105;43.616;1.434;2022-12-07T00:24:58;28.50;;;20.00;;
14060;SDS011;7105;43.616;1.434;2022-12-07T00:27:24;33.17;;;23.07;;
14060;SDS011;7105;43.616;1.434;2022-12-07T00:29:49;30.40;;;22.50;;
14060;SDS011;7105;43.616;1.434;2022-12-07T00:32:15;29.90;;;22.63;;
14060;SDS011;7105;43.616;1.434;2022-12-07T00:34:41;31.17;;;22.23;;
14060;SDS011;7105;43.616;1.434;2022-12-07T00:37:06;30.57;;;22.70;;
14060;SDS011;7105;43.616;1.434;2022-12-07T00:39:32;30.77;;;22.27;;
14060;SDS011;7105;43.616;1.434;2022-12-07T00:41:57;25.17;;;19.30;;
14060;SDS011;7105;43.616;1.434;2022-12-07T00:44:23;28.53;;;21.13;;
14060;SDS011;7105;43.616;1.434;2022-12-07T00:46:49;29.40;;;23.07;;
14060;SDS011;7105;43.616;1.434;2022-12-07T00:49:14;30.57;;;22.13;;
14060;SDS011;7105;43.616;1.434;2022-12-07T00:51:40;36.23;;;24.83;;
14060;SDS011;7105;43.616;1.434;2022-12-07T00:54:06;38.63;;;27.47;;
14060;SDS011;7105;43.616;1.434;2022-12-07T00:56:31;36.93;;;26.60;;
14060;SDS011;7105;43.616;1.434;2022-12-07T00:58:58;37.43;;;26.57;;
14060;SDS011;7105;43.616;1.434;2022-12-07T01:01:26;38.63;;;24.43;;
14060;SDS011;7105;43.616;1.434;2022-12-07T01:03:53;38.23;;;27.33;;
14060;SDS011;7105;43.616;1.434;2022-12-07T01:06:20;34.53;;;26.77;;
14060;SDS011;7105;43.616;1.434;2022-12-07T01:08:46;36.53;;;26.73;;
14060;SDS011;7105;43.616;1.434;2022-12-07T01:11:13;36.00;;;26.37;;
14060;SDS011;7105;43.616;1.434;2022-12-07T01:13:41;37.57;;;26.80;;
14060;SDS011;7105;43.616;1.434;2022-12-07T01:16:08;39.63;;;28.93;;
14060;SDS011;7105;43.616;1.434;2022-12-07T01:18:36;36.00;;;26.53;;
14060;SDS011;7105;43.616;1.434;2022-12-07T01:21:03;38.43;;;27.03;;
14060;SDS011;7105;43.616;1.434;2022-12-07T01:23:31;39.07;;;27.00;;
14060;SDS011;7105;43.616;1.434;2022-12-07T01:25:59;36.80;;;27.00;;
14060;SDS011;7105;43.616;1.434;2022-12-07T01:28:26;37.43;;;26.43;;
14060;SDS011;7105;43.616;1.434;2022-12-07T01:30:59;34.63;;;24.73;;
14060;SDS011;7105;43.616;1.434;2022-12-07T01:33:27;38.13;;;25.43;;
14060;SDS011;7105;43.616;1.434;2022-12-07T01:35:55;37.63;;;26.77;;
14060;SDS011;7105;43.616;1.434;2022-12-07T01:38:26;36.87;;;26.10;;
14060;SDS011;7105;43.616;1.434;2022-12-07T01:40:55;36.30;;;25.43;;
14060;SDS011;7105;43.616;1.434;2022-12-07T01:43:21;36.63;;;25.63;;
14060;SDS011;7105;43.616;1.434;2022-12-07T01:45:50;35.87;;;25.77;;
14060;SDS011;7105;43.616;1.434;2022-12-07T01:48:17;37.13;;;26.53;;
14060;SDS011;7105;43.616;1.434;2022-12-07T01:50:47;32.57;;;25.40;;
14060;SDS011;7105;43.616;1.434;2022-12-07T01:53:15;37.43;;;26.23;;
14060;SDS011;7105;43.616;1.434;2022-12-07T01:55:43;34.50;;;24.87;;
14060;SDS011;7105;43.616;1.434;2022-12-07T01:58:12;34.30;;;24.00;;
14060;SDS011;7105;43.616;1.434;2022-12-07T02:00:39;30.17;;;24.43;;
14060;SDS011;7105;43.616;1.434;2022-12-07T02:03:07;35.13;;;25.20;;
14060;SDS011;7105;43.616;1.434;2022-12-07T02:05:40;37.43;;;26.00;;
14060;SDS011;7105;43.616;1.434;2022-12-07T02:08:08;35.07;;;26.23;;
14060;SDS011;7105;43.616;1.434;2022-12-07T02:10:35;36.73;;;26.00;;
14060;SDS011;7105;43.616;1.434;2022-12-07T02:21:14;33.60;;;24.87;;
14060;SDS011;7105;43.616;1.434;2022-12-07T02:23:58;34.43;;;24.27;;
14060;SDS011;7105;43.616;1.434;2022-12-07T02:29:27;31.80;;;23.47;;
14060;SDS011;7105;43.616;1.434;2022-12-07T02:32:24;31.83;;;23.00;;
14060;SDS011;7105;43.616;1.434;2022-12-07T02:35:05;30.20;;;23.17;;
14060;SDS011;7105;43.616;1.434;2022-12-07T02:37:47;34.43;;;22.73;;
14060;SDS011;7105;43.616;1.434;2022-12-07T02:42:58;29.60;;;21.73;;
14060;SDS011;7105;43.616;1.434;2022-12-07T02:45:30;25.83;;;19.80;;
14060;SDS011;7105;43.616;1.434;2022-12-07T02:47:58;29.37;;;21.57;;
14060;SDS011;7105;43.616;1.434;2022-12-07T02:50:25;27.80;;;21.13;;
14060;SDS011;7105;43.616;1.434;2022-12-07T02:52:51;30.73;;;21.73;;
14060;SDS011;7105;43.616;1.434;2022-12-07T02:55:17;30.90;;;22.37;;
14060;SDS011;7105;43.616;1.434;2022-12-07T02:58:05;28.70;;;21.63;;
14060;SDS011;7105;43.616;1.434;2022-12-07T03:00:52;28.20;;;21.60;;
14060;SDS011;7105;43.616;1.434;2022-12-07T03:03:29;30.20;;;21.40;;
14060;SDS011;7105;43.616;1.434;2022-12-07T03:06:10;32.13;;;22.63;;
14060;SDS011;7105;43.616;1.434;2022-12-07T03:08:51;27.67;;;21.77;;
14060;SDS011;7105;43.616;1.434;2022-12-07T03:11:25;29.03;;;21.83;;
14060;SDS011;7105;43.616;1.434;2022-12-07T03:14:00;31.23;;;22.60;;
14060;SDS011;7105;43.616;1.434;2022-12-07T03:17:02;28.97;;;22.30;;
14060;SDS011;7105;43.616;1.434;2022-12-07T03:19:35;28.90;;;21.23;;
14060;SDS011;7105;43.616;1.434;2022-12-07T03:22:04;28.13;;;21.10;;
14060;SDS011;7105;43.616;1.434;2022-12-07T03:24:37;31.60;;;22.43;;
14060;SDS011;7105;43.616;1.434;2022-12-07T03:27:13;29.43;;;22.00;;
14060;SDS011;7105;43.616;1.434;2022-12-07T03:29:42;31.63;;;23.50;;
14060;SDS011;7105;43.616;1.434;2022-12-07T03:32:14;30.13;;;22.60;;
14060;SDS011;7105;43.616;1.434;2022-12-07T03:37:29;32.13;;;23.70;;
14060;SDS011;7105;43.616;1.434;2022-12-07T03:42:47;34.60;;;25.20;;
14060;SDS011;7105;43.616;1.434;2022-12-07T03:45:14;30.67;;;24.07;;
14060;SDS011;7105;43.616;1.434;2022-12-07T03:47:48;33.93;;;25.50;;
14060;SDS011;7105;43.616;1.434;2022-12-07T03:50:28;36.07;;;26.63;;
14060;SDS011;7105;43.616;1.434;2022-12-07T03:55:37;40.13;;;29.10;;
14060;SDS011;7105;43.616;1.434;2022-12-07T03:58:09;39.00;;;29.23;;
14060;SDS011;7105;43.616;1.434;2022-12-07T04:00:41;40.53;;;30.07;;
14060;SDS011;7105;43.616;1.434;2022-12-07T04:03:09;40.63;;;29.63;;
14060;SDS011;7105;43.616;1.434;2022-12-07T04:05:35;40.23;;;29.80;;
14060;SDS011;7105;43.616;1.434;2022-12-07T04:08:01;40.47;;;29.60;;
14060;SDS011;7105;43.616;1.434;2022-12-07T04:10:27;39.10;;;29.33;;
14060;SDS011;7105;43.616;1.434;2022-12-07T04:12:55;40.77;;;28.80;;
14060;SDS011;7105;43.616;1.434;2022-12-07T04:15:20;41.80;;;30.90;;
14060;SDS011;7105;43.616;1.434;2022-12-07T04:17:46;41.53;;;29.70;;
14060;SDS011;7105;43.616;1.434;2022-12-07T04:20:12;42.30;;;30.10;;
14060;SDS011;7105;43.616;1.434;2022-12-07T04:22:38;40.30;;;29.73;;
14060;SDS011;7105;43.616;1.434;2022-12-07T04:25:04;38.20;;;29.10;;
14060;SDS011;7105;43.616;1.434;2022-12-07T04:27:30;41.83;;;30.20;;
14060;SDS011;7105;43.616;1.434;2022-12-07T04:29:56;41.03;;;31.30;;
14060;SDS011;7105;43.616;1.434;2022-12-07T04:32:22;39.60;;;30.17;;
14060;SDS011;7105;43.616;1.434;2022-12-07T04:34:48;39.93;;;29.33;;
14060;SDS011;7105;43.616;1.434;2022-12-07T04:37:14;42.73;;;31.30;;
14060;SDS011;7105;43.616;1.434;2022-12-07T04:39:39;40.27;;;29.57;;
14060;SDS011;7105;43.616;1.434;2022-12-07T04:42:05;41.33;;;30.60;;
14060;SDS011;7105;43.616;1.434;2022-12-07T04:44:31;38.30;;;28.53;;
14060;SDS011;7105;43.616;1.434;2022-12-07T04:46:57;40.23;;;30.43;;
14060;SDS011;7105;43.616;1.434;2022-12-07T04:49:23;42.80;;;29.07;;
14060;SDS011;7105;43.616;1.434;2022-12-07T04:51:50;40.37;;;29.70;;
14060;SDS011;7105;43.616;1.434;2022-12-07T04:54:16;39.20;;;29.87;;
14060;SDS011;7105;43.616;1.434;2022-12-07T04:56:43;39.43;;;29.67;;
14060;SDS011;7105;43.616;1.434;2022-12-07T04:59:10;38.03;;;29.60;;
14060;SDS011;7105;43.616;1.434;2022-12-07T05:01:37;38.97;;;28.80;;
14060;SDS011;7105;43.616;1.434;2022-12-07T05:04:03;42.73;;;29.93;;
14060;SDS011;7105;43.616;1.434;2022-12-07T05:06:28;39.50;;;29.03;;
14060;SDS011;7105;43.616;1.434;2022-12-07T05:08:54;37.83;;;27.27;;
14060;SDS011;7105;43.616;1.434;2022-12-07T05:11:20;39.47;;;28.87;;
14060;SDS011;7105;43.616;1.434;2022-12-07T05:14:09;33.73;;;26.80;;
14060;SDS011;7105;43.616;1.434;2022-12-07T05:16:35;37.27;;;27.53;;
14060;SDS011;7105;43.616;1.434;2022-12-07T05:19:01;37.83;;;27.70;;
14060;SDS011;7105;43.616;1.434;2022-12-07T05:21:28;37.43;;;28.03;;
14060;SDS011;7105;43.616;1.434;2022-12-07T05:23:53;36.00;;;28.27;;
14060;SDS011;7105;43.616;1.434;2022-12-07T05:26:19;37.67;;;27.63;;
14060;SDS011;7105;43.616;1.434;2022-12-07T05:28:45;40.73;;;28.33;;
14060;SDS011;7105;43.616;1.434;2022-12-07T05:31:15;37.43;;;27.37;;
14060;SDS011;7105;43.616;1.434;2022-12-07T05:33:40;37.47;;;28.70;;
14060;SDS011;7105;43.616;1.434;2022-12-07T05:36:06;39.23;;;28.20;;
14060;SDS011;7105;43.616;1.434;2022-12-07T05:38:32;38.07;;;28.63;;
14060;SDS011;7105;43.616;1.434;2022-12-07T05:41:00;41.70;;;29.77;;
14060;SDS011;7105;43.616;1.434;2022-12-07T05:43:27;38.63;;;28.80;;
14060;SDS011;7105;43.616;1.434;2022-12-07T05:45:53;38.67;;;28.10;;
14060;SDS011;7105;43.616;1.434;2022-12-07T05:48:19;36.73;;;28.13;;
14060;SDS011;7105;43.616;1.434;2022-12-07T05:50:47;40.03;;;27.70;;
14060;SDS011;7105;43.616;1.434;2022-12-07T05:53:13;38.47;;;27.67;;
14060;SDS011;7105;43.616;1.434;2022-12-07T05:55:39;36.43;;;28.10;;
14060;SDS011;7105;43.616;1.434;2022-12-07T05:58:04;36.63;;;28.33;;
14060;SDS011;7105;43.616;1.434;2022-12-07T06:00:50;39.40;;;28.03;;
14060;SDS011;7105;43.616;1.434;2022-12-07T06:03:15;36.03;;;25.90;;
14060;SDS011;7105;43.616;1.434;2022-12-07T06:05:41;31.90;;;25.10;;
14060;SDS011;7105;43.616;1.434;2022-12-07T06:08:07;36.63;;;27.63;;
14060;SDS011;7105;43.616;1.434;2022-12-07T06:10:33;34.90;;;26.30;;
14060;SDS011;7105;43.616;1.434;2022-12-07T06:12:59;36.40;;;26.50;;
14060;SDS011;7105;43.616;1.434;2022-12-07T06:15:24;35.83;;;25.47;;
14060;SDS011;7105;43.616;1.434;2022-12-07T06:17:50;32.23;;;26.00;;
14060;SDS011;7105;43.616;1.434;2022-12-07T06:20:16;31.50;;;25.57;;
14060;SDS011;7105;43.616;1.434;2022-12-07T06:22:41;37.30;;;26.77;;
14060;SDS011;7105;43.616;1.434;2022-12-07T06:25:07;38.40;;;27.13;;
14060;SDS011;7105;43.616;1.434;2022-12-07T06:27:33;33.23;;;25.07;;
14060;SDS011;7105;43.616;1.434;2022-12-07T06:30:00;34.77;;;26.47;;
14060;SDS011;7105;43.616;1.434;2022-12-07T06:32:31;33.20;;;25.73;;
14060;SDS011;7105;43.616;1.434;2022-12-07T06:35:01;40.13;;;26.70;;
14060;SDS011;7105;43.616;1.434;2022-12-07T06:37:28;38.93;;;27.50;;
14060;SDS011;7105;43.616;1.434;2022-12-07T06:39:54;43.40;;;28.57;;
14060;SDS011;7105;43.616;1.434;2022-12-07T06:42:20;41.53;;;27.53;;
14060;SDS011;7105;43.616;1.434;2022-12-07T06:44:46;41.30;;;28.20;;
14060;SDS011;7105;43.616;1.434;2022-12-07T06:47:11;37.20;;;26.47;;
14060;SDS011;7105;43.616;1.434;2022-12-07T06:49:37;46.80;;;28.87;;
14060;SDS011;7105;43.616;1.434;2022-12-07T06:52:03;43.93;;;27.90;;
14060;SDS011;7105;43.616;1.434;2022-12-07T06:54:31;59.57;;;29.77;;
14060;SDS011;7105;43.616;1.434;2022-12-07T06:56:58;41.47;;;26.67;;
14060;SDS011;7105;43.616;1.434;2022-12-07T06:59:23;31.93;;;24.70;;
14060;SDS011;7105;43.616;1.434;2022-12-07T07:01:49;48.00;;;30.93;;
14060;SDS011;7105;43.616;1.434;2022-12-07T07:04:15;37.83;;;27.40;;
14060;SDS011;7105;43.616;1.434;2022-12-07T07:06:40;33.33;;;25.33;;
14060;SDS011;7105;43.616;1.434;2022-12-07T07:09:06;49.20;;;30.10;;
14060;SDS011;7105;43.616;1.434;2022-12-07T07:11:32;37.30;;;27.30;;
14060;SDS011;7105;43.616;1.434;2022-12-07T07:13:57;38.03;;;26.37;;
14060;SDS011;7105;43.616;1.434;2022-12-07T07:16:27;35.83;;;26.40;;
14060;SDS011;7105;43.616;1.434;2022-12-07T07:18:55;40.47;;;28.57;;
14060;SDS011;7105;43.616;1.434;2022-12-07T07:21:20;38.37;;;27.77;;
14060;SDS011;7105;43.616;1.434;2022-12-07T07:23:46;38.33;;;29.30;;
14060;SDS011;7105;43.616;1.434;2022-12-07T07:26:12;43.27;;;30.43;;
14060;SDS011;7105;43.616;1.434;2022-12-07T07:28:37;39.13;;;28.87;;
14060;SDS011;7105;43.616;1.434;2022-12-07T07:31:03;37.90;;;27.10;;
14060;SDS011;7105;43.616;1.434;2022-12-07T07:33:29;41.17;;;29.70;;
14060;SDS011;7105;43.616;1.434;2022-12-07T07:35:55;41.57;;;29.50;;
14060;SDS011;7105;43.616;1.434;2022-12-07T07:38:20;50.27;;;34.33;;
14060;SDS011;7105;43.616;1.434;2022-12-07T07:40:46;59.00;;;34.43;;
14060;SDS011;7105;43.616;1.434;2022-12-07T07:43:12;50.77;;;31.00;;
14060;SDS011;7105;43.616;1.434;2022-12-07T07:45:37;60.70;;;35.83;;
14060;SDS011;7105;43.616;1.434;2022-12-07T07:48:03;55.33;;;34.77;;
14060;SDS011;7105;43.616;1.434;2022-12-07T07:50:29;55.30;;;32.57;;
14060;SDS011;7105;43.616;1.434;2022-12-07T07:52:56;46.90;;;32.00;;
14060;SDS011;7105;43.616;1.434;2022-12-07T07:55:22;46.80;;;31.87;;
14060;SDS011;7105;43.616;1.434;2022-12-07T07:57:48;41.60;;;30.50;;
14060;SDS011;7105;43.616;1.434;2022-12-07T08:00:14;53.73;;;35.40;;
14060;SDS011;7105;43.616;1.434;2022-12-07T08:02:41;44.83;;;32.60;;
14060;SDS011;7105;43.616;1.434;2022-12-07T08:05:08;48.43;;;33.67;;
14060;SDS011;7105;43.616;1.434;2022-12-07T08:07:34;52.20;;;34.90;;
14060;SDS011;7105;43.616;1.434;2022-12-07T08:10:00;47.23;;;33.67;;
14060;SDS011;7105;43.616;1.434;2022-12-07T08:12:26;50.37;;;33.63;;
14060;SDS011;7105;43.616;1.434;2022-12-07T08:14:51;51.63;;;35.47;;
14060;SDS011;7105;43.616;1.434;2022-12-07T08:17:17;48.83;;;34.13;;
14060;SDS011;7105;43.616;1.434;2022-12-07T08:19:43;53.50;;;35.30;;
14060;SDS011;7105;43.616;1.434;2022-12-07T08:22:08;53.00;;;34.53;;
14060;SDS011;7105;43.616;1.434;2022-12-07T08:24:34;50.77;;;33.67;;
14060;SDS011;7105;43.616;1.434;2022-12-07T08:27:00;53.90;;;35.60;;
14060;SDS011;7105;43.616;1.434;2022-12-07T08:29:28;54.50;;;33.33;;
14060;SDS011;7105;43.616;1.434;2022-12-07T08:31:54;44.67;;;30.73;;
14060;SDS011;7105;43.616;1.434;2022-12-07T08:34:20;42.07;;;30.43;;
14060;SDS011;7105;43.616;1.434;2022-12-07T08:36:45;52.43;;;34.13;;
14060;SDS011;7105;43.616;1.434;2022-12-07T08:39:11;43.63;;;30.87;;
14060;SDS011;7105;43.616;1.434;2022-12-07T08:41:37;40.90;;;29.47;;
14060;SDS011;7105;43.616;1.434;2022-12-07T08:44:03;35.33;;;26.03;;
14060;SDS011;7105;43.616;1.434;2022-12-07T08:46:51;40.27;;;25.23;;
14060;SDS011;7105;43.616;1.434;2022-12-07T08:49:24;29.20;;;20.83;;
14060;SDS011;7105;43.616;1.434;2022-12-07T08:51:54;29.33;;;20.90;;
14060;SDS011;7105;43.616;1.434;2022-12-07T08:54:20;33.07;;;22.17;;
14060;SDS011;7105;43.616;1.434;2022-12-07T08:56:47;26.23;;;19.33;;
14060;SDS011;7105;43.616;1.434;2022-12-07T08:59:14;25.03;;;18.63;;
14060;SDS011;7105;43.616;1.434;2022-12-07T09:01:42;36.40;;;20.40;;
14060;SDS011;7105;43.616;1.434;2022-12-07T09:04:08;28.77;;;18.77;;
14060;SDS011;7105;43.616;1.434;2022-12-07T09:06:33;26.30;;;18.23;;
14060;SDS011;7105;43.616;1.434;2022-12-07T09:08:59;25.73;;;18.97;;
14060;SDS011;7105;43.616;1.434;2022-12-07T09:11:26;30.37;;;18.53;;
14060;SDS011;7105;43.616;1.434;2022-12-07T09:13:52;22.47;;;17.77;;
14060;SDS011;7105;43.616;1.434;2022-12-07T09:16:18;24.00;;;16.53;;
14060;SDS011;7105;43.616;1.434;2022-12-07T09:18:43;23.37;;;18.50;;
14060;SDS011;7105;43.616;1.434;2022-12-07T09:21:09;22.10;;;17.27;;
14060;SDS011;7105;43.616;1.434;2022-12-07T09:23:35;20.03;;;15.70;;
14060;SDS011;7105;43.616;1.434;2022-12-07T09:26:01;22.30;;;16.23;;
14060;SDS011;7105;43.616;1.434;2022-12-07T09:28:27;19.57;;;15.47;;
14060;SDS011;7105;43.616;1.434;2022-12-07T09:30:54;23.80;;;17.50;;
14060;SDS011;7105;43.616;1.434;2022-12-07T09:33:20;25.63;;;18.57;;
14060;SDS011;7105;43.616;1.434;2022-12-07T09:35:46;23.13;;;17.90;;
14060;SDS011;7105;43.616;1.434;2022-12-07T09:38:13;23.07;;;17.90;;
14060;SDS011;7105;43.616;1.434;2022-12-07T09:40:39;25.53;;;18.40;;
14060;SDS011;7105;43.616;1.434;2022-12-07T09:43:05;23.60;;;18.43;;
14060;SDS011;7105;43.616;1.434;2022-12-07T09:45:37;24.00;;;18.27;;
14060;SDS011;7105;43.616;1.434;2022-12-07T09:48:03;25.23;;;18.87;;
14060;SDS011;7105;43.616;1.434;2022-12-07T09:50:30;23.77;;;18.07;;
14060;SDS011;7105;43.616;1.434;2022-12-07T09:53:04;21.87;;;17.13;;
14060;SDS011;7105;43.616;1.434;2022-12-07T09:55:33;20.70;;;17.10;;
14060;SDS011;7105;43.616;1.434;2022-12-07T09:58:01;25.33;;;17.83;;
14060;SDS011;7105;43.616;1.434;2022-12-07T10:00:26;25.73;;;17.87;;
14060;SDS011;7105;43.616;1.434;2022-12-07T10:02:57;23.40;;;17.47;;
14060;SDS011;7105;43.616;1.434;2022-12-07T10:05:40;24.70;;;17.63;;
14060;SDS011;7105;43.616;1.434;2022-12-07T10:08:12;22.37;;;17.30;;
14060;SDS011;7105;43.616;1.434;2022-12-07T10:10:40;24.17;;;17.50;;
14060;SDS011;7105;43.616;1.434;2022-12-07T10:20:59;20.33;;;16.83;;
14060;SDS011;7105;43.616;1.434;2022-12-07T10:23:41;21.47;;;17.00;;
14060;SDS011;7105;43.616;1.434;2022-12-07T10:26:28;21.77;;;17.57;;
14060;SDS011;7105;43.616;1.434;2022-12-07T10:28:58;21.03;;;16.97;;
14060;SDS011;7105;43.616;1.434;2022-12-07T10:31:43;24.07;;;17.53;;
14060;SDS011;7105;43.616;1.434;2022-12-07T10:34:32;24.30;;;17.53;;
14060;SDS011;7105;43.616;1.434;2022-12-07T10:39:48;21.87;;;15.40;;
14060;SDS011;7105;43.616;1.434;2022-12-07T10:44:46;22.23;;;14.93;;
14060;SDS011;7105;43.616;1.434;2022-12-07T10:47:51;19.00;;;14.00;;
14060;SDS011;7105;43.616;1.434;2022-12-07T10:56:17;17.87;;;14.23;;
14060;SDS011;7105;43.616;1.434;2022-12-07T11:09:49;15.30;;;12.47;;
14060;SDS011;7105;43.616;1.434;2022-12-07T11:22:48;17.87;;;12.97;;
14060;SDS011;7105;43.616;1.434;2022-12-07T11:25:36;17.43;;;13.10;;
14060;SDS011;7105;43.616;1.434;2022-12-07T11:28:27;18.73;;;12.37;;
14060;SDS011;7105;43.616;1.434;2022-12-07T11:33:39;14.27;;;10.90;;
14060;SDS011;7105;43.616;1.434;2022-12-07T11:36:16;11.63;;;9.57;;
14060;SDS011;7105;43.616;1.434;2022-12-07T11:38:44;14.20;;;10.30;;
14060;SDS011;7105;43.616;1.434;2022-12-07T11:41:17;15.53;;;11.30;;
14060;SDS011;7105;43.616;1.434;2022-12-07T11:43:56;15.23;;;11.60;;
14060;SDS011;7105;43.616;1.434;2022-12-07T11:46:49;11.67;;;9.23;;
14060;SDS011;7105;43.616;1.434;2022-12-07T11:49:20;15.27;;;9.07;;
14060;SDS011;7105;43.616;1.434;2022-12-07T11:51:58;11.93;;;8.23;;
14060;SDS011;7105;43.616;1.434;2022-12-07T11:54:30;11.27;;;8.53;;
14060;SDS011;7105;43.616;1.434;2022-12-07T11:57:02;13.83;;;9.40;;
14060;SDS011;7105;43.616;1.434;2022-12-07T11:59:41;12.70;;;9.37;;
14060;SDS011;7105;43.616;1.434;2022-12-07T12:02:18;12.03;;;9.50;;
14060;SDS011;7105;43.616;1.434;2022-12-07T12:05:11;11.97;;;8.30;;
14060;SDS011;7105;43.616;1.434;2022-12-07T12:07:41;11.47;;;8.77;;
14060;SDS011;7105;43.616;1.434;2022-12-07T12:18:35;8.60;;;7.00;;
14060;SDS011;7105;43.616;1.434;2022-12-07T12:21:12;10.33;;;8.07;;
14060;SDS011;7105;43.616;1.434;2022-12-07T12:23:43;10.47;;;8.27;;
14060;SDS011;7105;43.616;1.434;2022-12-07T12:26:20;11.93;;;8.80;;
14060;SDS011;7105;43.616;1.434;2022-12-07T12:36:18;10.13;;;8.23;;
14060;SDS011;7105;43.616;1.434;2022-12-07T12:50:18;9.70;;;7.70;;
14060;SDS011;7105;43.616;1.434;2022-12-07T12:58:34;12.83;;;9.47;;
14060;SDS011;7105;43.616;1.434;2022-12-07T13:04:02;12.37;;;8.87;;
14060;SDS011;7105;43.616;1.434;2022-12-07T13:06:39;10.83;;;8.33;;
14060;SDS011;7105;43.616;1.434;2022-12-07T13:09:14;9.60;;;7.73;;
14060;SDS011;7105;43.616;1.434;2022-12-07T13:11:46;10.23;;;7.40;;
14060;SDS011;7105;43.616;1.434;2022-12-07T13:17:04;13.47;;;9.30;;
14060;SDS011;7105;43.616;1.434;2022-12-07T13:22:34;9.20;;;7.77;;
14060;SDS011;7105;43.616;1.434;2022-12-07T13:27:59;6.57;;;5.60;;
14060;SDS011;7105;43.616;1.434;2022-12-07T13:30:31;7.73;;;6.07;;
14060;SDS011;7105;43.616;1.434;2022-12-07T13:33:04;8.10;;;5.90;;
14060;SDS011;7105;43.616;1.434;2022-12-07T13:35:31;7.30;;;6.07;;
14060;SDS011;7105;43.616;1.434;2022-12-07T13:38:02;7.67;;;6.20;;
14060;SDS011;7105;43.616;1.434;2022-12-07T13:40:31;8.10;;;5.90;;
14060;SDS011;7105;43.616;1.434;2022-12-07T13:43:01;6.97;;;6.03;;
14060;SDS011;7105;43.616;1.434;2022-12-07T13:45:29;7.33;;;6.03;;
14060;SDS011;7105;43.616;1.434;2022-12-07T13:50:56;8.00;;;5.97;;
14060;SDS011;7105;43.616;1.434;2022-12-07T13:53:23;9.93;;;6.30;;
14060;SDS011;7105;43.616;1.434;2022-12-07T13:55:57;9.07;;;6.10;;
14060;SDS011;7105;43.616;1.434;2022-12-07T13:58:25;7.27;;;6.03;;
14060;SDS011;7105;43.616;1.434;2022-12-07T14:00:52;8.43;;;6.67;;
14060;SDS011;7105;43.616;1.434;2022-12-07T14:06:03;10.23;;;6.80;;
14060;SDS011;7105;43.616;1.434;2022-12-07T14:11:42;11.33;;;7.97;;
14060;SDS011;7105;43.616;1.434;2022-12-07T14:14:23;8.73;;;7.80;;
14060;SDS011;7105;43.616;1.434;2022-12-07T14:17:09;9.57;;;7.63;;
14060;SDS011;7105;43.616;1.434;2022-12-07T14:19:48;8.93;;;7.80;;
14060;SDS011;7105;43.616;1.434;2022-12-07T14:22:28;11.63;;;9.17;;
14060;SDS011;7105;43.616;1.434;2022-12-07T14:25:14;11.23;;;8.60;;
14060;SDS011;7105;43.616;1.434;2022-12-07T14:27:50;12.13;;;9.57;;
14060;SDS011;7105;43.616;1.434;2022-12-07T14:30:21;11.03;;;9.30;;
14060;SDS011;7105;43.616;1.434;2022-12-07T14:32:48;9.97;;;8.63;;
14060;SDS011;7105;43.616;1.434;2022-12-07T14:35:34;11.97;;;9.17;;
14060;SDS011;7105;43.616;1.434;2022-12-07T14:38:05;12.13;;;8.63;;
14060;SDS011;7105;43.616;1.434;2022-12-07T14:40:31;10.97;;;8.70;;
14060;SDS011;7105;43.616;1.434;2022-12-07T14:42:59;11.07;;;8.90;;
14060;SDS011;7105;43.616;1.434;2022-12-07T14:45:26;10.50;;;7.90;;
14060;SDS011;7105;43.616;1.434;2022-12-07T14:47:52;11.43;;;8.17;;
14060;SDS011;7105;43.616;1.434;2022-12-07T14:50:19;11.13;;;9.00;;
14060;SDS011;7105;43.616;1.434;2022-12-07T14:52:46;11.37;;;8.07;;
14060;SDS011;7105;43.616;1.434;2022-12-07T14:55:29;11.70;;;8.47;;
14060;SDS011;7105;43.616;1.434;2022-12-07T14:57:56;8.33;;;7.40;;
14060;SDS011;7105;43.616;1.434;2022-12-07T15:00:24;9.37;;;7.30;;
14060;SDS011;7105;43.616;1.434;2022-12-07T15:02:51;9.43;;;7.80;;
14060;SDS011;7105;43.616;1.434;2022-12-07T15:05:17;9.00;;;7.47;;
14060;SDS011;7105;43.616;1.434;2022-12-07T15:07:44;11.47;;;7.90;;
14060;SDS011;7105;43.616;1.434;2022-12-07T15:10:15;11.33;;;7.80;;
14060;SDS011;7105;43.616;1.434;2022-12-07T15:12:43;10.23;;;7.80;;
14060;SDS011;7105;43.616;1.434;2022-12-07T15:15:09;9.20;;;7.00;;
14060;SDS011;7105;43.616;1.434;2022-12-07T15:17:35;8.43;;;7.23;;
14060;SDS011;7105;43.616;1.434;2022-12-07T15:20:02;10.50;;;7.63;;
14060;SDS011;7105;43.616;1.434;2022-12-07T15:22:28;12.87;;;7.43;;
14060;SDS011;7105;43.616;1.434;2022-12-07T15:24:56;10.63;;;7.23;;
14060;SDS011;7105;43.616;1.434;2022-12-07T15:27:22;9.50;;;7.23;;
14060;SDS011;7105;43.616;1.434;2022-12-07T15:29:48;8.60;;;7.17;;
14060;SDS011;7105;43.616;1.434;2022-12-07T15:32:13;11.53;;;7.50;;
14060;SDS011;7105;43.616;1.434;2022-12-07T15:34:39;9.80;;;7.63;;
14060;SDS011;7105;43.616;1.434;2022-12-07T15:37:05;8.93;;;6.93;;
14060;SDS011;7105;43.616;1.434;2022-12-07T15:39:31;10.33;;;8.13;;
14060;SDS011;7105;43.616;1.434;2022-12-07T15:41:56;9.97;;;7.70;;
14060;SDS011;7105;43.616;1.434;2022-12-07T15:44:22;9.03;;;7.83;;
14060;SDS011;7105;43.616;1.434;2022-12-07T15:47:06;9.43;;;8.23;;
14060;SDS011;7105;43.616;1.434;2022-12-07T15:49:32;11.13;;;7.60;;
14060;SDS011;7105;43.616;1.434;2022-12-07T15:51:57;10.77;;;7.97;;
14060;SDS011;7105;43.616;1.434;2022-12-07T15:54:24;10.57;;;8.53;;
14060;SDS011;7105;43.616;1.434;2022-12-07T15:56:51;14.57;;;8.70;;
14060;SDS011;7105;43.616;1.434;2022-12-07T15:59:17;9.70;;;8.27;;
14060;SDS011;7105;43.616;1.434;2022-12-07T16:01:43;11.63;;;8.97;;
14060;SDS011;7105;43.616;1.434;2022-12-07T16:04:09;11.73;;;9.00;;
14060;SDS011;7105;43.616;1.434;2022-12-07T16:06:35;13.27;;;8.87;;
14060;SDS011;7105;43.616;1.434;2022-12-07T16:09:01;12.03;;;8.73;;
14060;SDS011;7105;43.616;1.434;2022-12-07T16:11:27;12.20;;;8.63;;
14060;SDS011;7105;43.616;1.434;2022-12-07T16:13:53;12.40;;;8.80;;
14060;SDS011;7105;43.616;1.434;2022-12-07T16:16:19;9.97;;;8.27;;
14060;SDS011;7105;43.616;1.434;2022-12-07T16:18:47;11.73;;;8.70;;
14060;SDS011;7105;43.616;1.434;2022-12-07T16:21:15;14.27;;;8.57;;
14060;SDS011;7105;43.616;1.434;2022-12-07T16:23:42;9.23;;;8.20;;
14060;SDS011;7105;43.616;1.434;2022-12-07T16:26:10;10.03;;;8.63;;
14060;SDS011;7105;43.616;1.434;2022-12-07T16:28:40;12.93;;;9.77;;
14060;SDS011;7105;43.616;1.434;2022-12-07T16:31:08;14.03;;;10.10;;
14060;SDS011;7105;43.616;1.434;2022-12-07T16:33:39;12.23;;;9.60;;
14060;SDS011;7105;43.616;1.434;2022-12-07T16:36:06;13.50;;;9.97;;
14060;SDS011;7105;43.616;1.434;2022-12-07T16:38:33;14.07;;;9.23;;
14060;SDS011;7105;43.616;1.434;2022-12-07T16:40:59;14.03;;;9.87;;
14060;SDS011;7105;43.616;1.434;2022-12-07T16:43:25;13.20;;;8.63;;
14060;SDS011;7105;43.616;1.434;2022-12-07T16:45:50;12.77;;;9.57;;
14060;SDS011;7105;43.616;1.434;2022-12-07T16:48:16;10.17;;;8.47;;
14060;SDS011;7105;43.616;1.434;2022-12-07T16:50:43;16.63;;;9.70;;